Time;durP1;ratioP1;P1;durP2;ratioP2;P2;SDS_P1;SDS_P2;PMS_P1;PMS_P2;Temp;Humidity;BMP_temperature;BMP_pressure;BME280_temperature;BME280_humidity;BME280_pressure;Samples;Min_cycle;Max_cycle;Signal;HPM_P1;HPM_P2
2022/04/28 00:01:45;;;;;;;8.70;7.60;;;;;;;-143.37;100.00;62585.38;5080634;28;20445;-76
2022/04/28 00:04:21;;;;;;;7.70;6.90;;;;;;;-143.37;100.00;62585.38;5067099;28;20536;-76
2022/04/28 00:06:57;;;;;;;8.50;7.63;;;;;;;-143.37;100.00;62585.38;5081624;28;20433;-76
2022/04/28 00:09:33;;;;;;;9.83;7.70;;;;;;;-143.37;100.00;62585.38;5080595;28;20541;-76
2022/04/28 00:12:11;;;;;;;8.53;7.63;;;;;;;-143.37;100.00;62585.38;5092445;28;20489;-75
2022/04/28 00:14:47;;;;;;;7.43;6.73;;;;;;;-143.37;100.00;62585.38;5095683;28;20544;-75
2022/04/28 00:17:25;;;;;;;9.37;7.60;;;;;;;-143.37;100.00;62585.38;5068009;28;20429;-75
2022/04/28 00:20:01;;;;;;;8.87;7.97;;;;;;;-143.37;100.00;62585.38;5071604;28;20894;-75
2022/04/28 00:22:36;;;;;;;8.73;7.80;;;;;;;-143.37;100.00;62585.38;5070806;28;20441;-75
2022/04/28 00:25:12;;;;;;;11.33;6.90;;;;;;;-143.37;100.00;62585.38;5072104;28;20476;-75
2022/04/28 00:27:49;;;;;;;8.30;7.30;;;;;;;-143.37;100.00;62585.38;5082244;28;20535;-75
2022/04/28 00:30:25;;;;;;;8.20;6.70;;;;;;;-143.37;100.00;62585.38;5071585;28;20456;-75
2022/04/28 00:33:02;;;;;;;7.80;7.00;;;;;;;-143.37;100.00;62585.38;5082956;28;20458;-75
2022/04/28 00:35:38;;;;;;;7.87;7.07;;;;;;;-143.37;100.00;62585.38;5083960;28;20437;-75
2022/04/28 00:38:14;;;;;;;7.43;6.73;;;;;;;-143.37;100.00;62585.38;5066722;28;21045;-74
2022/04/28 00:40:54;;;;;;;7.93;7.10;;;;;;;-143.37;100.00;62585.38;5070669;28;21149;-75
2022/04/28 00:43:32;;;;;;;7.70;6.60;;;;;;;-143.37;100.00;62585.38;5085576;28;20456;-75
2022/04/28 00:46:08;;;;;;;7.97;7.17;;;;;;;-143.37;100.00;62585.38;5064103;28;20516;-75
2022/04/28 00:51:37;;;;;;;10.80;8.40;;;;;;;-143.37;100.00;62585.38;5089932;28;20497;-75
2022/04/28 00:54:13;;;;;;;7.70;6.53;;;;;;;-143.37;100.00;62585.38;5086311;28;20456;-75
2022/04/28 00:56:50;;;;;;;8.00;7.20;;;;;;;-143.37;100.00;62585.38;5086039;28;20841;-75
2022/04/28 00:59:29;;;;;;;7.80;7.00;;;;;;;-143.37;100.00;62585.38;5083703;28;20563;-75
2022/04/28 01:02:06;;;;;;;7.53;6.70;;;;;;;-143.37;100.00;62585.38;5083255;28;20426;-75
2022/04/28 01:04:41;;;;;;;7.37;6.67;;;;;;;-143.37;100.00;62585.38;5072599;28;20449;-75
2022/04/28 01:07:18;;;;;;;8.70;7.80;;;;;;;-143.37;100.00;62585.38;5066659;28;20429;-75
2022/04/28 01:09:54;;;;;;;8.40;7.30;;;;;;;-143.37;100.00;62585.38;5069647;28;20449;-75
2022/04/28 01:12:30;;;;;;;10.70;7.30;;;;;;;-143.37;100.00;62585.38;5069632;28;20460;-75
2022/04/28 01:15:08;;;;;;;8.00;7.03;;;;;;;-143.37;100.00;62585.38;5064359;28;20445;-75
2022/04/28 01:17:44;;;;;;;9.93;7.47;;;;;;;-143.37;100.00;62585.38;5062612;28;20440;-75
2022/04/28 01:20:21;;;;;;;7.80;7.00;;;;;;;-143.37;100.00;62585.38;5086892;28;20461;-75
2022/04/28 01:22:58;;;;;;;8.00;6.67;;;;;;;-143.37;100.00;62585.38;5081850;28;20749;-75
2022/04/28 01:25:34;;;;;;;7.60;6.80;;;;;;;-143.37;100.00;62585.38;5070035;28;20962;-75
2022/04/28 01:28:09;;;;;;;8.40;7.60;;;;;;;-143.37;100.00;62585.38;5070913;28;20445;-75
2022/04/28 01:30:45;;;;;;;10.13;7.70;;;;;;;-143.37;100.00;62585.38;5083240;28;20938;-75
2022/04/28 01:33:20;;;;;;;9.53;7.83;;;;;;;-143.37;100.00;62585.38;5087427;28;20476;-75
2022/04/28 01:35:56;;;;;;;10.60;7.40;;;;;;;-143.37;100.00;62585.38;5084094;28;20433;-75
2022/04/28 01:38:34;;;;;;;9.00;7.33;;;;;;;-143.37;100.00;62585.38;5085486;28;20453;-75
2022/04/28 01:41:10;;;;;;;8.20;7.27;;;;;;;-143.37;100.00;62585.38;5076488;28;20468;-75
2022/04/28 01:43:47;;;;;;;9.20;7.67;;;;;;;-143.37;100.00;62585.38;5087265;28;20973;-74
2022/04/28 01:46:24;;;;;;;12.07;8.37;;;;;;;-143.37;100.00;62585.38;5087876;28;20502;-75
2022/04/28 01:49:08;;;;;;;10.87;9.20;;;;;;;-143.37;100.00;62585.38;5088374;28;20859;-75
2022/04/28 01:55:20;;;;;;;10.90;8.73;;;;;;;-143.37;100.00;62585.38;5069629;28;20433;-75
2022/04/28 01:58:22;;;;;;;10.93;8.70;;;;;;;-143.37;100.00;62585.38;5088555;28;20547;-75
2022/04/28 02:01:15;;;;;;;10.37;8.20;;;;;;;-143.37;100.00;62585.38;5079132;28;20448;-75
2022/04/28 02:03:53;;;;;;;12.97;10.13;;;;;;;-143.37;100.00;62585.38;5071698;28;20443;-75
2022/04/28 02:06:30;;;;;;;8.53;7.63;;;;;;;-143.37;100.00;62585.38;5084428;28;20437;-75
2022/04/28 02:09:06;;;;;;;9.70;8.30;;;;;;;-143.37;100.00;62585.38;5079421;28;20443;-75
2022/04/28 02:11:43;;;;;;;9.47;8.33;;;;;;;-143.37;100.00;62585.38;5074157;28;20468;-75
2022/04/28 02:14:46;;;;;;;9.63;8.37;;;;;;;-143.37;100.00;62585.38;5064698;28;20502;-75
2022/04/28 02:17:46;;;;;;;10.40;8.87;;;;;;;-143.37;100.00;62585.38;5087153;28;20441;-75
2022/04/28 02:20:27;;;;;;;10.17;8.00;;;;;;;-143.37;100.00;62585.38;5070797;28;20524;-75
2022/04/28 02:23:04;;;;;;;10.40;8.17;;;;;;;-143.37;100.00;62585.38;5071094;28;20429;-75
2022/04/28 02:25:43;;;;;;;10.00;8.57;;;;;;;-143.37;100.00;62585.38;5069298;28;20445;-75
2022/04/28 02:28:21;;;;;;;10.03;7.97;;;;;;;-143.37;100.00;62585.38;5085066;28;20436;-75
2022/04/28 02:30:57;;;;;;;10.23;8.63;;;;;;;-143.37;100.00;62585.38;5075416;28;20460;-75
2022/04/28 02:33:33;;;;;;;9.97;8.50;;;;;;;-143.37;100.00;62585.38;5067376;28;20812;-75
2022/04/28 02:36:35;;;;;;;10.70;8.43;;;;;;;-143.37;100.00;62585.38;5085737;28;20440;-74
2022/04/28 02:39:12;;;;;;;9.40;8.10;;;;;;;-143.37;100.00;62585.38;5106911;28;20456;-75
2022/04/28 02:41:48;;;;;;;10.77;8.60;;;;;;;-143.37;100.00;62585.38;5092227;28;20919;-75
2022/04/28 02:44:26;;;;;;;10.90;9.13;;;;;;;-143.37;100.00;62585.38;5084133;28;20872;-75
2022/04/28 02:47:03;;;;;;;10.50;9.30;;;;;;;-143.37;100.00;62585.38;5068069;28;20777;-75
2022/04/28 02:49:41;;;;;;;10.63;8.80;;;;;;;-143.37;100.00;62585.38;5074212;28;20448;-75
2022/04/28 02:52:19;;;;;;;10.00;8.90;;;;;;;-143.37;100.00;62585.38;5060908;28;20456;-75
2022/04/28 02:54:58;;;;;;;11.07;8.70;;;;;;;-143.37;100.00;62585.38;5082635;28;21032;-75
2022/04/28 02:57:34;;;;;;;9.60;8.60;;;;;;;-143.37;100.00;62585.38;5075655;28;20916;-75
2022/04/28 03:00:14;;;;;;;8.80;7.70;;;;;;;-143.37;100.00;62585.38;5055385;28;20464;-75
2022/04/28 03:03:02;;;;;;;10.73;8.90;;;;;;;-143.37;100.00;62585.38;5071313;28;20517;-75
2022/04/28 03:11:25;;;;;;;12.40;10.27;;;;;;;-143.37;100.00;62585.38;5069824;28;20453;-75
2022/04/28 03:14:00;;;;;;;11.83;9.27;;;;;;;-143.37;100.00;62585.38;5052764;28;20445;-75
2022/04/28 03:16:40;;;;;;;9.80;8.80;;;;;;;-143.37;100.00;62585.38;5054370;28;20437;-76
2022/04/28 03:19:17;;;;;;;14.13;10.40;;;;;;;-143.37;100.00;62585.38;5054623;28;20449;-76
2022/04/28 03:21:54;;;;;;;9.13;8.20;;;;;;;-143.37;100.00;62585.38;5069448;28;20429;-76
2022/04/28 03:24:30;;;;;;;12.50;10.10;;;;;;;-143.37;100.00;62585.38;5064933;28;20746;-76
2022/04/28 03:27:06;;;;;;;11.83;9.67;;;;;;;-143.37;100.00;62585.38;5069585;28;20444;-76
2022/04/28 03:29:41;;;;;;;12.57;10.07;;;;;;;-143.37;100.00;62585.38;5051463;28;20524;-77
2022/04/28 03:32:18;;;;;;;11.80;9.60;;;;;;;-143.37;100.00;62585.38;5054282;28;20822;-76
2022/04/28 03:34:57;;;;;;;11.13;9.80;;;;;;;-143.37;100.00;62585.38;5053198;28;20445;-76
2022/04/28 03:37:33;;;;;;;12.53;9.93;;;;;;;-143.37;100.00;62585.38;5053424;28;21009;-76
2022/04/28 03:40:10;;;;;;;10.83;9.40;;;;;;;-143.37;100.00;62585.38;5064776;28;20446;-77
2022/04/28 03:42:46;;;;;;;14.73;11.00;;;;;;;-143.37;100.00;62585.38;5053286;28;20432;-76
2022/04/28 03:45:24;;;;;;;12.43;10.40;;;;;;;-143.37;100.00;62585.38;5055162;28;21215;-76
2022/04/28 03:48:03;;;;;;;12.30;10.50;;;;;;;-143.37;100.00;62585.38;5052619;28;20436;-76
2022/04/28 03:50:39;;;;;;;12.43;11.03;;;;;;;-143.37;100.00;62585.38;5067440;28;20487;-76
2022/04/28 03:53:15;;;;;;;11.20;10.00;;;;;;;-143.37;100.00;62585.38;5051229;28;20997;-76
2022/04/28 03:55:54;;;;;;;13.13;11.10;;;;;;;-143.37;100.00;62585.38;5056511;28;20429;-76
2022/04/28 03:58:29;;;;;;;14.27;10.90;;;;;;;-143.37;100.00;62585.38;5058288;28;20472;-76
2022/04/28 04:01:05;;;;;;;15.17;11.07;;;;;;;-143.37;100.00;62585.38;5073802;28;20933;-76
2022/04/28 04:04:05;;;;;;;13.07;10.03;;;;;;;-143.37;100.00;62585.38;5085428;28;20448;-76
2022/04/28 04:06:41;;;;;;;12.70;11.40;;;;;;;-143.37;100.00;62585.38;5071758;28;20935;-76
2022/04/28 04:09:36;;;;;;;13.00;10.20;;;;;;;-143.37;100.00;62585.38;5086817;28;20441;-75
2022/04/28 04:12:14;;;;;;;11.80;10.33;;;;;;;-143.37;100.00;62585.38;5064124;28;20521;-77
2022/04/28 04:15:06;;;;;;;12.20;10.10;;;;;;;-143.37;100.00;62585.38;5091064;28;20441;-77
2022/04/28 04:18:01;;;;;;;12.70;11.33;;;;;;;-143.37;100.00;62585.38;5086288;28;20472;-77
2022/04/28 04:20:58;;;;;;;11.60;10.40;;;;;;;-143.37;100.00;62585.38;5094189;28;20432;-74
2022/04/28 04:23:33;;;;;;;11.70;10.03;;;;;;;-143.37;100.00;62585.38;5070913;28;20447;-76
2022/04/28 04:26:10;;;;;;;11.83;9.93;;;;;;;-143.37;100.00;62585.38;5070147;28;20441;-76
2022/04/28 04:28:45;;;;;;;12.37;9.77;;;;;;;-143.37;100.00;62585.38;5071388;28;20785;-76
2022/04/28 04:35:10;;;;;;;12.27;10.83;;;;;;;-143.37;100.00;62585.38;5085682;28;20863;-76
2022/04/28 04:41:02;;;;;;;14.33;10.90;;;;;;;-143.37;100.00;62585.38;4986361;28;20494;-79
2022/04/28 04:43:52;;;;;;;12.60;10.67;;;;;;;-143.37;100.00;62585.38;4990454;28;20800;-78
2022/04/28 04:46:29;;;;;;;11.17;9.50;;;;;;;-143.37;100.00;62585.38;4980188;28;20441;-78
2022/04/28 04:49:26;;;;;;;11.20;9.67;;;;;;;-143.37;100.00;62585.38;4991306;28;20944;-78
2022/04/28 04:52:15;;;;;;;12.77;11.30;;;;;;;-143.37;100.00;62585.38;4989197;28;20532;-78
2022/04/28 04:55:17;;;;;;;13.23;10.13;;;;;;;-143.37;100.00;62585.38;4974866;28;20449;-78
2022/04/28 04:58:07;;;;;;;14.23;11.70;;;;;;;-143.37;100.00;62585.38;4965922;28;20525;-78
2022/04/28 05:00:43;;;;;;;12.67;10.40;;;;;;;-143.37;100.00;62585.38;4976762;28;20800;-78
2022/04/28 05:03:41;;;;;;;13.90;10.73;;;;;;;-143.37;100.00;62585.38;4985139;28;20794;-78
2022/04/28 05:06:36;;;;;;;12.57;10.07;;;;;;;-143.37;100.00;62585.38;4990501;28;20556;-78
2022/04/28 05:09:21;;;;;;;11.97;10.03;;;;;;;-143.37;100.00;62585.38;4996173;28;20444;-79
2022/04/28 05:11:56;;;;;;;14.33;11.43;;;;;;;-143.37;100.00;62585.38;4995048;28;20455;-78
2022/04/28 05:14:59;;;;;;;13.87;12.10;;;;;;;-143.37;100.00;62585.38;4993023;28;20841;-79
2022/04/28 05:17:41;;;;;;;15.33;12.40;;;;;;;-143.37;100.00;62585.38;4989227;28;20453;-78
2022/04/28 05:20:37;;;;;;;12.20;9.80;;;;;;;-143.37;100.00;62585.38;4973751;28;20468;-79
2022/04/28 05:23:32;;;;;;;13.40;11.27;;;;;;;-143.37;100.00;62585.38;4963475;28;20430;-79
2022/04/28 05:26:40;;;;;;;11.23;10.13;;;;;;;-143.37;100.00;62585.38;4962855;28;20438;-79
2022/04/28 05:29:34;;;;;;;12.63;10.10;;;;;;;-143.37;100.00;62585.38;4974222;28;21301;-79
2022/04/28 05:32:39;;;;;;;10.07;9.00;;;;;;;-143.37;100.00;62585.38;4969980;28;20466;-79
2022/04/28 05:35:28;;;;;;;10.27;8.30;;;;;;;-143.37;100.00;62585.38;4973508;28;20784;-79
2022/04/28 05:38:05;;;;;;;10.07;9.00;;;;;;;-143.37;100.00;62585.38;4978379;28;20935;-79
2022/04/28 05:40:41;;;;;;;11.67;10.47;;;;;;;-143.37;100.00;62585.38;4972863;28;20560;-79
2022/04/28 05:46:10;;;;;;;10.70;9.50;;;;;;;-143.37;100.00;62585.38;4954758;28;20965;-79
2022/04/28 05:48:48;;;;;;;11.40;9.70;;;;;;;-143.37;100.00;62585.38;4958124;28;20460;-79
2022/04/28 05:51:26;;;;;;;10.87;9.23;;;;;;;-143.37;100.00;62585.38;4948161;28;20824;-79
2022/04/28 05:54:02;;;;;;;11.27;9.10;;;;;;;-143.37;100.00;62585.38;4956448;28;20474;-79
2022/04/28 05:56:38;;;;;;;10.60;9.50;;;;;;;-143.37;100.00;62585.38;4938708;28;20808;-79
2022/04/28 05:59:21;;;;;;;11.00;9.87;;;;;;;-143.37;100.00;62585.38;4955257;28;20456;-80
2022/04/28 06:01:56;;;;;;;9.27;7.83;;;;;;;-143.37;100.00;62585.38;4972729;28;20441;-80
2022/04/28 06:04:37;;;;;;;8.87;7.97;;;;;;;-143.37;100.00;62585.38;4954280;28;20871;-79
2022/04/28 06:07:12;;;;;;;11.40;8.80;;;;;;;-143.37;100.00;62585.38;4970813;28;20983;-80
2022/04/28 06:09:54;;;;;;;9.17;8.10;;;;;;;-143.37;100.00;62585.38;4940744;28;21237;-80
2022/04/28 06:12:35;;;;;;;8.63;7.63;;;;;;;-143.37;100.00;62585.38;4960530;28;20536;-79
2022/04/28 06:15:33;;;;;;;8.67;7.77;;;;;;;-143.37;100.00;62585.38;4953810;28;20482;-79
2022/04/28 06:18:15;;;;;;;8.50;7.57;;;;;;;-143.37;100.00;62585.38;4972993;28;20987;-79
2022/04/28 06:20:54;;;;;;;8.93;8.03;;;;;;;-143.37;100.00;62585.38;4971323;28;20493;-80
2022/04/28 06:23:41;;;;;;;8.97;7.87;;;;;;;-143.37;100.00;62585.38;4973044;28;20447;-80
2022/04/28 06:26:17;;;;;;;8.23;7.43;;;;;;;-143.37;100.00;62585.38;4956035;28;20454;-80
2022/04/28 06:28:53;;;;;;;8.73;7.93;;;;;;;-143.37;100.00;62585.38;4957376;28;20438;-80
2022/04/28 06:31:29;;;;;;;8.80;7.90;;;;;;;-143.37;100.00;62585.38;4939990;28;20766;-78
2022/04/28 06:34:26;;;;;;;9.63;8.27;;;;;;;-143.37;100.00;62585.38;4972408;28;20884;-79
2022/04/28 06:37:05;;;;;;;8.83;7.80;;;;;;;-143.37;100.00;62585.38;4969465;28;20534;-80
2022/04/28 06:39:41;;;;;;;8.60;7.80;;;;;;;-143.37;100.00;62585.38;4955958;28;20458;-80
2022/04/28 06:42:17;;;;;;;8.17;7.37;;;;;;;-143.37;100.00;62585.38;4974463;28;20483;-80
2022/04/28 06:45:13;;;;;;;8.00;7.20;;;;;;;-143.37;100.00;62585.38;4967355;28;20466;-80
2022/04/28 06:48:08;;;;;;;8.03;7.20;;;;;;;-143.37;100.00;62585.38;4973864;28;20477;-80
2022/04/28 06:50:50;;;;;;;8.93;8.03;;;;;;;-143.37;100.00;62585.38;4990620;28;20592;-80
2022/04/28 06:54:00;;;;;;;10.07;8.00;;;;;;;-143.37;100.00;62585.38;4961234;28;20477;-80
2022/04/28 06:56:40;;;;;;;9.90;7.50;;;;;;;-143.37;100.00;62585.38;4970568;28;21051;-80
2022/04/28 06:59:17;;;;;;;10.17;9.17;;;;;;;-143.37;100.00;62585.38;4954685;28;20446;-80
2022/04/28 07:01:54;;;;;;;10.23;9.17;;;;;;;-143.37;100.00;62585.38;4987804;28;20457;-80
2022/04/28 07:04:32;;;;;;;8.87;7.17;;;;;;;-143.37;100.00;62585.38;4971804;28;20453;-80
2022/04/28 07:07:08;;;;;;;8.80;7.90;;;;;;;-143.37;100.00;62585.38;4970046;28;20500;-80
2022/04/28 07:09:45;;;;;;;9.83;8.40;;;;;;;-143.37;100.00;62585.38;4972415;28;20813;-80
2022/04/28 07:12:21;;;;;;;11.43;9.23;;;;;;;-143.37;100.00;62585.38;4973485;28;20827;-80
2022/04/28 07:15:07;;;;;;;9.30;8.30;;;;;;;-143.37;100.00;62585.38;4974983;28;20926;-80
2022/04/28 07:17:48;;;;;;;8.80;7.90;;;;;;;-143.37;100.00;62585.38;4985418;28;20974;-80
2022/04/28 07:23:11;;;;;;;9.13;8.23;;;;;;;-143.37;100.00;62585.38;5063911;28;20577;-77
2022/04/28 07:25:48;;;;;;;9.57;7.90;;;;;;;-143.37;100.00;62585.38;5033502;28;20544;-77
2022/04/28 07:28:26;;;;;;;9.47;8.47;;;;;;;-143.37;100.00;62585.38;5032355;28;20894;-77
2022/04/28 07:31:10;;;;;;;9.00;8.17;;;;;;;-143.37;100.00;62585.38;5060431;28;20534;-77
2022/04/28 07:34:05;;;;;;;10.37;8.40;;;;;;;-143.37;100.00;62585.38;5036148;28;20797;-77
2022/04/28 07:36:47;;;;;;;11.50;8.00;;;;;;;-143.37;100.00;62585.38;5036349;28;20952;-77
2022/04/28 07:39:37;;;;;;;8.90;7.50;;;;;;;-143.37;100.00;62585.38;5044919;28;20430;-77
2022/04/28 07:42:44;;;;;;;9.60;8.60;;;;;;;-143.37;100.00;62585.38;5030079;28;20446;-77
2022/04/28 07:45:20;;;;;;;8.93;8.03;;;;;;;-143.37;100.00;62585.38;5045753;28;20461;-77
2022/04/28 07:47:56;;;;;;;7.70;6.80;;;;;;;-143.37;100.00;62585.38;5034264;28;20982;-77
2022/04/28 07:50:34;;;;;;;8.07;7.27;;;;;;;-143.37;100.00;62585.38;5036659;28;20445;-77
2022/04/28 07:53:31;;;;;;;8.53;7.53;;;;;;;-143.37;100.00;62585.38;5034839;28;20466;-77
2022/04/28 07:56:18;;;;;;;8.33;7.53;;;;;;;-143.37;100.00;62585.38;5027813;28;20446;-77
2022/04/28 07:58:58;;;;;;;8.77;7.97;;;;;;;-143.37;100.00;62585.38;5042457;28;21177;-77
2022/04/28 08:01:53;;;;;;;8.33;7.50;;;;;;;-143.37;100.00;62585.38;5041427;28;20438;-77
2022/04/28 08:04:29;;;;;;;8.13;7.40;;;;;;;-143.37;100.00;62585.38;5025805;28;20924;-77
2022/04/28 08:07:14;;;;;;;7.83;7.13;;;;;;;-143.37;100.00;62585.38;5027960;28;20525;-78
2022/04/28 08:09:58;;;;;;;7.80;7.10;;;;;;;-143.37;100.00;62585.38;5031061;28;20438;-77
2022/04/28 08:12:35;;;;;;;8.57;7.67;;;;;;;-143.37;100.00;62585.38;5045122;28;20450;-77
2022/04/28 08:15:20;;;;;;;6.70;6.10;;;;;;;-143.37;100.00;62585.38;5050550;28;20495;-77
2022/04/28 08:17:56;;;;;;;7.57;6.77;;;;;;;-143.37;100.00;62585.38;5064660;28;20442;-77
2022/04/28 08:20:31;;;;;;;6.90;6.30;;;;;;;-143.37;100.00;62585.38;5033012;28;20924;-77
2022/04/28 08:23:07;;;;;;;7.03;6.00;;;;;;;-143.37;100.00;62585.38;5020507;28;20475;-77
2022/04/28 08:25:42;;;;;;;7.13;6.40;;;;;;;-143.37;100.00;62585.38;5011447;28;20465;-77
2022/04/28 08:28:19;;;;;;;6.67;6.07;;;;;;;-143.37;100.00;62585.38;5014178;28;20804;-77
2022/04/28 08:30:56;;;;;;;9.37;6.33;;;;;;;-143.37;100.00;62585.38;5025140;28;20434;-77
2022/04/28 08:33:33;;;;;;;7.00;6.40;;;;;;;-143.37;100.00;62585.38;5015201;28;20822;-77
2022/04/28 08:36:10;;;;;;;7.27;6.57;;;;;;;-143.37;100.00;62585.38;5026956;28;20456;-77
2022/04/28 08:38:49;;;;;;;8.47;7.53;;;;;;;-143.37;100.00;62585.38;5013036;28;20801;-77
2022/04/28 08:41:32;;;;;;;6.50;5.90;;;;;;;-143.37;100.00;62585.38;5015165;28;20438;-77
2022/04/28 08:44:27;;;;;;;7.87;6.93;;;;;;;-143.37;100.00;62585.38;5028904;28;20434;-77
2022/04/28 08:47:31;;;;;;;6.40;5.80;;;;;;;-143.37;100.00;62585.38;5013044;28;20450;-77
2022/04/28 08:50:27;;;;;;;7.17;6.47;;;;;;;-143.37;100.00;62585.38;5011435;28;20450;-77
2022/04/28 08:53:12;;;;;;;6.13;5.63;;;;;;;-143.37;100.00;62585.38;5013756;28;20470;-77
2022/04/28 08:55:57;;;;;;;7.03;6.40;;;;;;;-143.37;100.00;62585.38;5020327;28;20964;-77
2022/04/28 08:58:33;;;;;;;6.37;5.77;;;;;;;-143.37;100.00;62585.38;5030297;28;20451;-77
2022/04/28 09:01:14;;;;;;;6.13;5.53;;;;;;;-143.37;100.00;62585.38;5027811;28;20446;-77
2022/04/28 09:04:14;;;;;;;7.20;6.00;;;;;;;-143.37;100.00;62585.38;5028231;28;20541;-77
2022/04/28 09:06:56;;;;;;;9.83;8.03;;;;;;;-143.37;100.00;62585.38;5031181;28;20983;-78
2022/04/28 09:09:44;;;;;;;7.60;6.90;;;;;;;-143.37;100.00;62585.38;5043764;28;20435;-77
2022/04/28 09:16:12;;;;;;;4.60;4.20;;;;;;;-143.37;100.00;62585.38;5032846;28;20439;-77
2022/04/28 09:18:49;;;;;;;5.83;5.23;;;;;;;-143.37;100.00;62585.38;5027029;28;20447;-77
2022/04/28 09:21:27;;;;;;;5.80;5.00;;;;;;;-143.37;100.00;62585.38;5013489;28;20970;-77
2022/04/28 09:24:05;;;;;;;5.77;5.27;;;;;;;-143.37;100.00;62585.38;5031897;28;20461;-77
2022/04/28 09:26:41;;;;;;;5.60;5.10;;;;;;;-143.37;100.00;62585.38;5034715;28;20935;-77
2022/04/28 09:29:18;;;;;;;6.47;5.43;;;;;;;-143.37;100.00;62585.38;5031748;28;20438;-77
2022/04/28 09:31:55;;;;;;;5.20;4.70;;;;;;;-143.37;100.00;62585.38;5032077;28;20797;-76
2022/04/28 09:34:55;;;;;;;4.43;4.03;;;;;;;-143.37;100.00;62585.38;5041390;28;20462;-77
2022/04/28 09:37:51;;;;;;;5.17;4.67;;;;;;;-143.37;100.00;62585.38;5048822;28;20462;-76
2022/04/28 09:43:22;;;;;;;5.23;4.73;;;;;;;-143.37;100.00;62585.38;5049840;28;20435;-77
2022/04/28 09:45:59;;;;;;;5.60;4.93;;;;;;;-143.37;100.00;62585.38;5034480;28;20454;-77
2022/04/28 09:48:36;;;;;;;4.70;4.30;;;;;;;-143.37;100.00;62585.38;5053271;28;20544;-77
2022/04/28 09:51:14;;;;;;;5.43;4.93;;;;;;;-143.37;100.00;62585.38;5047496;28;20495;-76
2022/04/28 09:54:14;;;;;;;5.33;4.83;;;;;;;-143.37;100.00;62585.38;5050417;28;20983;-77
2022/04/28 09:57:09;;;;;;;5.60;5.00;;;;;;;-143.37;100.00;62585.38;5037077;28;20449;-77
2022/04/28 09:59:46;;;;;;;4.63;4.23;;;;;;;-143.37;100.00;62585.38;5038102;28;20430;-77
2022/04/28 10:02:23;;;;;;;4.43;4.03;;;;;;;-143.37;100.00;62585.38;5037417;28;20441;-77
2022/04/28 10:04:59;;;;;;;4.67;4.27;;;;;;;-143.37;100.00;62585.38;5035380;28;20477;-77
2022/04/28 10:07:55;;;;;;;5.47;4.97;;;;;;;-143.37;100.00;62585.38;5037786;28;20812;-77
2022/04/28 10:10:35;;;;;;;5.90;4.40;;;;;;;-143.37;100.00;62585.38;5052529;28;20437;-77
2022/04/28 10:13:12;;;;;;;5.00;4.50;;;;;;;-143.37;100.00;62585.38;5030308;28;20462;-77
2022/04/28 10:16:11;;;;;;;7.37;5.00;;;;;;;-143.37;100.00;62585.38;5031980;28;20846;-77
2022/04/28 10:18:50;;;;;;;4.80;4.40;;;;;;;-143.37;100.00;62585.38;5046530;28;20935;-77
2022/04/28 10:21:31;;;;;;;4.80;4.40;;;;;;;-143.37;100.00;62585.38;5032584;28;20999;-77
2022/04/28 10:33:21;;;;;;;5.33;4.83;;;;;;;-143.37;100.00;62585.38;5046977;28;20449;-77
2022/04/28 10:35:57;;;;;;;5.10;4.70;;;;;;;-143.37;100.00;62585.38;5031531;28;20557;-77
2022/04/28 10:38:34;;;;;;;4.70;3.97;;;;;;;-143.37;100.00;62585.38;5048284;28;20442;-77
2022/04/28 10:41:11;;;;;;;4.17;3.87;;;;;;;-143.37;100.00;62585.38;5058622;28;20446;-77
2022/04/28 10:43:51;;;;;;;4.10;3.70;;;;;;;-143.37;100.00;62585.38;5031348;28;20454;-76
2022/04/28 10:46:31;;;;;;;4.70;4.30;;;;;;;-143.37;100.00;62585.38;5033248;28;20515;-76
2022/04/28 10:49:06;;;;;;;4.73;4.30;;;;;;;-143.37;100.00;62585.38;5047351;28;20445;-76
2022/04/28 10:51:43;;;;;;;4.40;4.00;;;;;;;-143.37;100.00;62585.38;5047044;28;20427;-77
2022/04/28 10:54:23;;;;;;;4.57;4.17;;;;;;;-143.37;100.00;62585.38;5035528;28;20489;-76
2022/04/28 10:57:01;;;;;;;4.57;4.17;;;;;;;-143.37;100.00;62585.38;5051253;28;20458;-76
2022/04/28 10:59:40;;;;;;;4.97;3.93;;;;;;;-143.37;100.00;62585.38;5049174;28;20442;-77
2022/04/28 11:02:45;;;;;;;4.73;3.90;;;;;;;-143.37;100.00;62585.38;5050475;28;20445;-77
2022/04/28 11:05:43;;;;;;;5.00;4.50;;;;;;;-143.37;100.00;62585.38;5019973;28;20874;-76
2022/04/28 11:08:26;;;;;;;4.50;4.10;;;;;;;-143.37;100.00;62585.38;5044678;28;20446;-76
2022/04/28 11:11:11;;;;;;;7.50;4.73;;;;;;;-143.37;100.00;62585.38;5051698;28;20442;-77
2022/04/28 11:13:56;;;;;;;4.90;4.13;;;;;;;-143.37;100.00;62585.38;5022019;28;20458;-77
2022/04/28 11:16:33;;;;;;;5.43;4.43;;;;;;;-143.37;100.00;62585.38;5044902;28;20439;-77
2022/04/28 11:19:09;;;;;;;4.20;3.80;;;;;;;-143.37;100.00;62585.38;5043589;28;20955;-76
2022/04/28 11:21:46;;;;;;;4.97;4.53;;;;;;;-143.37;100.00;62585.38;5031995;28;20536;-77
2022/04/28 11:24:21;;;;;;;5.50;5.00;;;;;;;-143.37;100.00;62585.38;5048638;28;20795;-77
2022/04/28 11:27:15;;;;;;;4.93;4.00;;;;;;;-143.37;100.00;62585.38;5035473;28;20453;-77
2022/04/28 11:30:06;;;;;;;4.70;4.30;;;;;;;-143.37;100.00;62585.38;5021855;28;20442;-77
2022/04/28 11:32:51;;;;;;;5.20;4.80;;;;;;;-143.37;100.00;62585.38;5027981;28;20477;-77
2022/04/28 11:35:31;;;;;;;4.80;4.33;;;;;;;-143.37;100.00;62585.38;5045875;28;20461;-77
2022/04/28 11:38:08;;;;;;;6.17;4.80;;;;;;;-143.37;100.00;62585.38;5043392;28;20446;-77
2022/04/28 11:40:44;;;;;;;4.50;4.10;;;;;;;-143.37;100.00;62585.38;5044974;28;20837;-77
2022/04/28 11:43:20;;;;;;;5.30;4.80;;;;;;;-143.37;100.00;62585.38;5047004;28;20446;-77
2022/04/28 11:45:55;;;;;;;5.47;4.90;;;;;;;-143.37;100.00;62585.38;5044990;28;20650;-77
2022/04/28 11:48:35;;;;;;;4.90;4.40;;;;;;;-143.37;100.00;62585.38;5045127;28;20952;-77
2022/04/28 11:51:11;;;;;;;4.97;4.47;;;;;;;-143.37;100.00;62585.38;5054730;28;20459;-77
2022/04/28 11:53:54;;;;;;;4.73;4.27;;;;;;;-143.37;100.00;62585.38;5050337;28;20450;-76
2022/04/28 11:56:31;;;;;;;4.20;3.80;;;;;;;-143.37;100.00;62585.38;5055875;28;20446;-77
2022/04/28 11:59:07;;;;;;;4.37;3.97;;;;;;;-143.37;100.00;62585.38;5043482;28;20456;-77
2022/04/28 12:01:45;;;;;;;4.47;4.07;;;;;;;-143.37;100.00;62585.38;5045034;28;20806;-77
2022/04/28 12:04:22;;;;;;;4.20;3.80;;;;;;;-143.37;100.00;62585.38;5044255;28;20454;-77
2022/04/28 12:06:57;;;;;;;5.13;4.73;;;;;;;-143.37;100.00;62585.38;5042505;28;20528;-77
2022/04/28 12:15:27;;;;;;;4.57;4.17;;;;;;;-143.37;100.00;62585.38;5005081;28;20466;-77
2022/04/28 12:21:06;;;;;;;3.83;3.53;;;;;;;-143.37;100.00;62585.38;5026894;28;20483;-77
2022/04/28 12:23:43;;;;;;;4.47;3.97;;;;;;;-143.37;100.00;62585.38;5027492;28;20928;-77
2022/04/28 12:26:21;;;;;;;4.57;4.17;;;;;;;-143.37;100.00;62585.38;5023868;28;20446;-77
2022/04/28 12:28:56;;;;;;;5.27;3.83;;;;;;;-143.37;100.00;62585.38;5038695;28;20450;-77
2022/04/28 12:31:32;;;;;;;6.03;4.80;;;;;;;-143.37;100.00;62585.38;5037419;28;20996;-77
2022/04/28 12:34:11;;;;;;;4.80;4.40;;;;;;;-143.37;100.00;62585.38;5059330;28;20450;-77
2022/04/28 12:36:53;;;;;;;4.17;3.77;;;;;;;-143.37;100.00;62585.38;5038518;28;20434;-77
2022/04/28 12:39:30;;;;;;;4.50;4.10;;;;;;;-143.37;100.00;62585.38;5039993;28;20504;-77
2022/04/28 12:42:11;;;;;;;7.10;4.13;;;;;;;-143.37;100.00;62585.38;5028068;28;20726;-77
2022/04/28 12:44:48;;;;;;;4.40;4.00;;;;;;;-143.37;100.00;62585.38;5052612;28;20474;-77
2022/04/28 12:47:37;;;;;;;4.40;4.00;;;;;;;-143.37;100.00;62585.38;5028083;28;20943;-77
2022/04/28 12:50:21;;;;;;;4.63;4.23;;;;;;;-143.37;100.00;62585.38;5056059;28;20529;-77
2022/04/28 12:53:01;;;;;;;4.70;4.27;;;;;;;-143.37;100.00;62585.38;5042558;28;20450;-77
2022/04/28 12:55:37;;;;;;;4.37;4.07;;;;;;;-143.37;100.00;62585.38;5043204;28;20463;-77
2022/04/28 12:58:13;;;;;;;4.57;4.17;;;;;;;-143.37;100.00;62585.38;5056643;28;20446;-77